createdAt,value
2023-03-22T00:01:30.890Z,13.40
2023-03-22T00:03:58.507Z,10.80
2023-03-22T00:06:26.574Z,13.32
2023-03-22T00:08:54.197Z,11.00
2023-03-22T00:11:24.345Z,9.02
2023-03-22T00:13:52.459Z,8.45
2023-03-22T00:16:20.505Z,11.27
2023-03-22T00:18:47.096Z,9.95
2023-03-22T00:21:15.699Z,10.25
2023-03-22T00:23:42.739Z,10.77
2023-03-22T00:26:10.918Z,10.88
2023-03-22T00:28:37.415Z,11.65
2023-03-22T00:31:05.876Z,10.43
2023-03-22T00:33:32.785Z,10.82
2023-03-22T00:36:05.888Z,9.85
2023-03-22T00:38:42.818Z,9.38
2023-03-22T00:41:16.124Z,13.60
2023-03-22T00:43:43.765Z,9.43
2023-03-22T00:46:12.563Z,8.43
2023-03-22T00:48:39.549Z,12.70
2023-03-22T00:51:07.141Z,9.13
2023-03-22T00:53:36.357Z,11.88
2023-03-22T00:56:04.724Z,9.90
2023-03-22T00:58:31.297Z,12.27
2023-03-22T01:00:58.064Z,10.95
2023-03-22T01:03:24.833Z,15.30
2023-03-22T01:05:55.928Z,12.48
2023-03-22T01:08:23.943Z,15.65
2023-03-22T01:10:51.222Z,11.20
2023-03-22T01:13:18.210Z,11.45
2023-03-22T01:15:45.035Z,12.15
2023-03-22T01:18:11.587Z,12.43
2023-03-22T01:20:38.508Z,12.88
2023-03-22T01:23:05.287Z,12.23
2023-03-22T01:25:32.417Z,12.70
2023-03-22T01:27:59.039Z,12.05
2023-03-22T01:30:25.925Z,15.05
2023-03-22T01:32:52.353Z,14.45
2023-03-22T01:35:19.245Z,14.18
2023-03-22T01:37:46.478Z,14.55
2023-03-22T01:40:14.754Z,12.77
2023-03-22T01:42:42.358Z,12.98
2023-03-22T01:45:28.891Z,12.23
2023-03-22T01:48:01.095Z,13.30
2023-03-22T01:50:30.542Z,14.45
2023-03-22T01:53:00.154Z,11.93
2023-03-22T01:55:28.417Z,12.77
2023-03-22T01:57:55.334Z,14.43
2023-03-22T02:00:22.315Z,16.77
2023-03-22T02:02:51.487Z,18.75
2023-03-22T02:05:22.104Z,17.23
2023-03-22T02:07:50.050Z,15.38
2023-03-22T02:10:22.880Z,13.95
2023-03-22T02:13:09.546Z,18.23
2023-03-22T02:15:46.988Z,13.43
2023-03-22T02:18:44.704Z,12.32
2023-03-22T02:21:32.628Z,13.07
2023-03-22T02:24:14.626Z,15.20
2023-03-22T02:27:04.981Z,17.27
2023-03-22T02:29:46.618Z,18.00
2023-03-22T02:32:51.778Z,24.65
2023-03-22T02:35:30.759Z,15.30
2023-03-22T02:37:57.139Z,14.32
2023-03-22T02:40:32.920Z,15.13
2023-03-22T02:43:23.773Z,13.85
2023-03-22T02:45:57.650Z,23.40
2023-03-22T02:48:31.871Z,16.73
2023-03-22T02:51:11.911Z,16.17
2023-03-22T02:53:46.890Z,13.05
2023-03-22T02:56:15.864Z,10.38
2023-03-22T02:58:46.718Z,15.93
2023-03-22T03:01:37.181Z,17.02
2023-03-22T03:04:09.684Z,13.85
2023-03-22T03:06:47.447Z,15.88
2023-03-22T03:09:18.013Z,13.05
2023-03-22T03:11:51.761Z,13.15
2023-03-22T03:14:27.996Z,12.77
2023-03-22T03:17:20.549Z,14.98
2023-03-22T03:20:19.384Z,17.85
2023-03-22T03:23:15.711Z,18.15
2023-03-22T03:26:14.642Z,15.35
2023-03-22T03:29:02.947Z,19.27
2023-03-22T03:31:34.871Z,15.65
2023-03-22T03:34:18.266Z,18.17
2023-03-22T03:36:54.480Z,15.20
2023-03-22T03:39:24.486Z,15.73
2023-03-22T03:41:53.154Z,15.63
2023-03-22T03:44:20.973Z,13.98
2023-03-22T03:46:48.210Z,16.20
2023-03-22T03:49:16.929Z,13.70
2023-03-22T03:51:54.583Z,17.23
2023-03-22T03:54:22.065Z,14.63
2023-03-22T03:56:49.381Z,14.45
2023-03-22T03:59:16.957Z,13.98
2023-03-22T04:01:52.411Z,17.92
2023-03-22T04:04:26.584Z,14.63
2023-03-22T04:06:57.450Z,16.88
2023-03-22T04:09:27.509Z,18.35
2023-03-22T04:11:55.885Z,14.10
2023-03-22T04:14:23.821Z,16.33
2023-03-22T04:16:52.427Z,25.92
2023-03-22T04:19:19.586Z,18.00
2023-03-22T04:21:46.220Z,15.30
2023-03-22T04:24:13.184Z,15.07
2023-03-22T04:26:39.777Z,15.73
2023-03-22T04:29:06.305Z,20.15
2023-03-22T04:31:34.072Z,14.70
2023-03-22T04:34:05.388Z,15.68
2023-03-22T04:36:36.159Z,16.15
2023-03-22T04:39:06.159Z,16.23
2023-03-22T04:41:33.950Z,14.65
2023-03-22T04:44:03.672Z,16.08
2023-03-22T04:46:31.768Z,19.42
2023-03-22T04:48:59.100Z,16.00
2023-03-22T04:51:26.382Z,15.80
2023-03-22T04:53:53.760Z,18.98
2023-03-22T04:56:20.715Z,17.63
2023-03-22T04:58:48.261Z,24.55
2023-03-22T05:01:18.108Z,20.13
2023-03-22T05:03:47.253Z,16.92
2023-03-22T05:06:14.545Z,15.05
2023-03-22T05:08:41.179Z,16.50
2023-03-22T05:11:15.648Z,16.13
2023-03-22T05:13:42.297Z,15.80
2023-03-22T05:16:10.029Z,20.05
2023-03-22T05:18:42.202Z,16.70
2023-03-22T05:21:15.564Z,14.70
2023-03-22T05:23:43.360Z,15.82
2023-03-22T05:26:10.900Z,19.70
2023-03-22T05:28:38.516Z,21.42
2023-03-22T05:31:05.893Z,16.90
2023-03-22T05:33:35.012Z,15.43
2023-03-22T05:36:01.809Z,17.80
2023-03-22T05:38:31.610Z,21.27
2023-03-22T05:40:58.068Z,15.07
2023-03-22T05:43:24.659Z,18.27
2023-03-22T05:45:51.220Z,22.70
2023-03-22T05:48:17.997Z,13.07
2023-03-22T05:50:44.755Z,15.57
2023-03-22T05:53:11.828Z,14.95
2023-03-22T05:55:38.775Z,12.52
2023-03-22T05:58:05.411Z,16.60
2023-03-22T06:00:32.387Z,13.63
2023-03-22T06:03:03.448Z,13.30
2023-03-22T06:05:32.167Z,12.50
2023-03-22T06:07:59.053Z,12.70
2023-03-22T06:10:28.741Z,11.25
2023-03-22T06:12:55.557Z,12.95
2023-03-22T06:15:22.196Z,12.43
2023-03-22T06:17:49.069Z,11.05
2023-03-22T06:20:16.908Z,15.20
2023-03-22T06:22:43.385Z,14.88
2023-03-22T06:25:11.219Z,12.43
2023-03-22T06:27:38.103Z,14.25
2023-03-22T06:30:05.885Z,14.00
2023-03-22T06:32:32.435Z,15.27
2023-03-22T06:34:58.872Z,18.02
2023-03-22T06:37:26.766Z,15.95
2023-03-22T06:39:53.227Z,15.40
2023-03-22T06:42:19.780Z,12.93
2023-03-22T06:44:46.745Z,18.75
2023-03-22T06:47:13.441Z,13.45
2023-03-22T06:49:40.562Z,14.18
2023-03-22T06:52:07.341Z,11.35
2023-03-22T06:54:34.263Z,10.38
2023-03-22T06:57:00.759Z,13.05
2023-03-22T06:59:27.714Z,17.02
2023-03-22T07:01:54.294Z,15.13
2023-03-22T07:04:21.058Z,16.45
2023-03-22T07:06:48.159Z,13.98
2023-03-22T07:09:14.546Z,12.15
2023-03-22T07:11:41.587Z,17.02
2023-03-22T07:14:08.142Z,11.77
2023-03-22T07:16:34.684Z,13.02
2023-03-22T07:19:01.791Z,13.88
2023-03-22T07:21:28.573Z,16.85
2023-03-22T07:23:55.491Z,16.80
2023-03-22T07:26:22.044Z,12.23
2023-03-22T07:28:48.804Z,12.18
2023-03-22T07:31:16.069Z,11.27
2023-03-22T07:33:42.478Z,13.10
2023-03-22T07:36:10.231Z,10.88
2023-03-22T07:38:38.039Z,11.77
2023-03-22T07:41:04.788Z,14.18
2023-03-22T07:43:32.186Z,12.88
2023-03-22T07:45:59.352Z,14.38
2023-03-22T07:48:25.874Z,10.18
2023-03-22T07:50:56.249Z,10.27
2023-03-22T07:53:22.674Z,13.73
2023-03-22T07:55:49.571Z,8.52
2023-03-22T07:58:16.431Z,11.75
2023-03-22T08:00:42.904Z,9.90
2023-03-22T08:03:12.680Z,10.95
2023-03-22T08:05:43.450Z,8.32
2023-03-22T08:08:10.757Z,8.75
2023-03-22T08:10:37.727Z,12.13
2023-03-22T08:13:04.309Z,11.68
2023-03-22T08:15:31.071Z,9.07
2023-03-22T08:17:58.134Z,15.98
2023-03-22T08:20:27.150Z,11.85
2023-03-22T08:22:54.608Z,8.98
2023-03-22T08:25:22.023Z,11.25
2023-03-22T08:27:48.436Z,8.73
2023-03-22T08:30:15.579Z,7.05
2023-03-22T08:32:42.040Z,6.20
2023-03-22T08:35:09.176Z,11.95
2023-03-22T08:37:36.201Z,5.05
2023-03-22T08:40:04.829Z,8.65
2023-03-22T08:42:31.868Z,8.48
2023-03-22T08:44:58.370Z,6.82
2023-03-22T08:47:25.222Z,6.50
2023-03-22T08:49:51.658Z,10.05
2023-03-22T08:52:18.678Z,7.32
2023-03-22T08:54:45.220Z,7.32
2023-03-22T08:57:11.857Z,6.00
2023-03-22T08:59:38.519Z,5.43
2023-03-22T09:02:05.660Z,4.63
2023-03-22T09:04:32.377Z,7.47
2023-03-22T09:06:58.823Z,4.22
2023-03-22T09:09:25.819Z,9.18
2023-03-22T09:11:52.251Z,9.93
2023-03-22T09:14:18.764Z,6.50
2023-03-22T09:16:45.724Z,6.18
2023-03-22T09:19:12.313Z,4.47
2023-03-22T09:21:38.695Z,8.60
2023-03-22T09:24:05.816Z,4.45
2023-03-22T09:26:32.824Z,4.38
2023-03-22T09:28:59.454Z,4.68
2023-03-22T09:31:26.075Z,6.40
2023-03-22T09:33:52.481Z,4.18
2023-03-22T09:36:19.697Z,4.00
2023-03-22T09:38:46.603Z,6.00
2023-03-22T09:41:22.778Z,6.35
2023-03-22T09:43:53.576Z,7.57
2023-03-22T09:46:29.128Z,4.45
2023-03-22T09:48:58.024Z,3.30
2023-03-22T09:51:40.797Z,4.00
2023-03-22T09:54:18.667Z,3.50
2023-03-22T09:56:51.483Z,4.78
2023-03-22T09:59:27.986Z,6.00
2023-03-22T10:02:04.909Z,3.78
2023-03-22T10:04:44.029Z,5.30
2023-03-22T10:07:37.266Z,3.83
2023-03-22T10:10:09.471Z,3.15
2023-03-22T10:12:54.725Z,3.95
2023-03-22T10:15:28.652Z,2.17
2023-03-22T10:17:57.709Z,3.65
2023-03-22T10:20:29.641Z,3.05
2023-03-22T10:22:59.790Z,8.15
2023-03-22T10:25:35.752Z,3.70
2023-03-22T10:28:02.536Z,4.18
2023-03-22T10:30:40.723Z,2.17
2023-03-22T10:33:27.372Z,2.30
2023-03-22T10:35:55.709Z,4.15
2023-03-22T10:38:26.343Z,5.88
2023-03-22T10:40:55.912Z,4.63
2023-03-22T10:43:31.707Z,4.22
2023-03-22T10:46:03.072Z,3.53
2023-03-22T10:48:40.984Z,5.20
2023-03-22T10:51:08.393Z,2.83
2023-03-22T10:53:39.857Z,4.40
2023-03-22T10:56:12.685Z,1.40
2023-03-22T10:58:39.139Z,3.50
2023-03-22T11:01:11.573Z,5.47
2023-03-22T11:03:41.863Z,3.13
2023-03-22T11:06:15.945Z,2.40
2023-03-22T11:08:45.280Z,4.80
2023-03-22T11:11:31.232Z,1.85
2023-03-22T11:14:15.931Z,3.85
2023-03-22T11:16:50.803Z,2.93
2023-03-22T11:19:26.476Z,6.57
2023-03-22T11:21:55.499Z,3.83
2023-03-22T11:24:26.374Z,2.17
2023-03-22T11:27:03.604Z,2.30
2023-03-22T11:29:40.835Z,3.50
2023-03-22T11:32:19.546Z,2.72
2023-03-22T11:34:46.459Z,4.90
2023-03-22T11:37:18.237Z,3.28
2023-03-22T11:39:50.727Z,7.22
2023-03-22T11:42:27.120Z,2.65
2023-03-22T11:44:56.124Z,2.58
2023-03-22T11:47:27.089Z,3.90
2023-03-22T11:49:57.213Z,2.00
2023-03-22T11:52:27.424Z,3.97
2023-03-22T11:54:56.200Z,3.05
2023-03-22T11:57:27.658Z,3.22
2023-03-22T12:00:12.093Z,4.85
2023-03-22T12:02:46.173Z,2.70
2023-03-22T12:05:20.610Z,4.60
2023-03-22T12:07:53.920Z,3.10
2023-03-22T12:10:29.100Z,4.03
2023-03-22T12:13:04.705Z,1.92
2023-03-22T12:15:42.354Z,4.68
2023-03-22T12:18:23.336Z,2.35
2023-03-22T12:21:01.017Z,2.38
2023-03-22T12:23:30.518Z,3.67
2023-03-22T12:26:00.554Z,1.65
2023-03-22T12:28:47.058Z,4.03
2023-03-22T12:31:21.799Z,1.65
2023-03-22T12:33:52.552Z,3.15
2023-03-22T12:36:34.927Z,6.43
2023-03-22T12:39:03.525Z,1.85
2023-03-22T12:41:39.291Z,2.13
2023-03-22T12:44:23.765Z,4.65
2023-03-22T12:47:17.047Z,1.58
2023-03-22T12:49:47.038Z,2.75
2023-03-22T12:52:19.684Z,4.05
2023-03-22T12:54:48.464Z,4.47
2023-03-22T12:57:17.056Z,3.88
2023-03-22T12:59:48.874Z,3.28
2023-03-22T13:02:17.642Z,2.42
2023-03-22T13:04:44.153Z,4.13
2023-03-22T13:07:13.572Z,3.65
2023-03-22T13:09:49.544Z,5.13
2023-03-22T13:12:18.734Z,4.25
2023-03-22T13:14:58.937Z,2.65
2023-03-22T13:17:25.878Z,1.50
2023-03-22T13:19:58.570Z,2.50
2023-03-22T13:22:38.084Z,2.05
2023-03-22T13:25:10.810Z,3.00
2023-03-22T13:27:39.301Z,3.15
2023-03-22T13:30:14.531Z,6.43
2023-03-22T13:33:09.744Z,5.68
2023-03-22T13:35:46.649Z,4.70
2023-03-22T13:38:33.297Z,2.42
2023-03-22T13:41:09.257Z,3.28
2023-03-22T13:43:46.998Z,3.78
2023-03-22T13:46:16.514Z,2.13
2023-03-22T13:48:52.266Z,4.97
2023-03-22T13:51:22.183Z,4.20
2023-03-22T13:54:05.162Z,4.85
2023-03-22T13:56:47.836Z,3.35
2023-03-22T13:59:23.124Z,5.90
2023-03-22T14:01:53.121Z,6.07
2023-03-22T14:04:29.153Z,5.15
2023-03-22T14:06:59.786Z,4.50
2023-03-22T14:09:33.160Z,4.30
2023-03-22T14:12:18.064Z,5.45
2023-03-22T14:14:48.777Z,2.83
2023-03-22T14:17:39.383Z,5.28
2023-03-22T14:20:10.905Z,2.33
